Time;durP1;ratioP1;P1;durP2;ratioP2;P2;SDS_P1;SDS_P2;PMS_P1;PMS_P2;Temp;Humidity;BMP_temperature;BMP_pressure;BME280_temperature;BME280_humidity;BME280_pressure;Samples;Min_cycle;Max_cycle;Signal;HPM_P1;HPM_P2
2024/01/22 00:01:26;;;;;;;13.77;6.93;;;10.20;20.50;;;;;;5049568;28;20105;-75
2024/01/22 00:03:51;;;;;;;10.77;7.00;;;11.20;70.30;;;;;;5049356;28;20049;-76
2024/01/22 00:06:17;;;;;;;8.68;6.38;;;10.20;99.90;;;;;;5062616;28;20033;-76
2024/01/22 00:08:43;;;;;;;12.27;7.20;;;10.00;99.90;;;;;;5045965;28;20496;-75
2024/01/22 00:11:08;;;;;;;10.73;7.03;;;9.90;1.00;;;;;;5065415;28;20567;-76
2024/01/22 00:13:34;;;;;;;10.02;6.60;;;11.40;1.00;;;;;;5066246;28;20463;-77
2024/01/22 00:15:59;;;;;;;10.68;6.15;;;11.00;1.00;;;;;;5050757;28;20119;-79
2024/01/22 00:18:25;;;;;;;8.68;6.30;;;11.20;99.90;;;;;;5057778;28;20048;-75
2024/01/22 00:20:51;;;;;;;10.38;6.75;;;11.20;1.00;;;;;;5067124;28;20054;-78
2024/01/22 00:23:16;;;;;;;9.25;6.47;;;11.50;1.00;;;;;;5049406;28;20504;-75
2024/01/22 00:25:42;;;;;;;10.43;6.57;;;11.30;1.00;;;;;;5048828;28;20123;-76
2024/01/22 00:28:09;;;;;;;9.98;6.93;;;11.00;1.00;;;;;;5064133;28;20128;-75
2024/01/22 00:30:35;;;;;;;10.02;6.55;;;11.50;1.00;;;;;;5058320;28;20033;-74
2024/01/22 00:33:00;;;;;;;8.90;6.65;;;11.40;99.90;;;;;;5066530;28;20043;-76
2024/01/22 00:35:27;;;;;;;10.13;7.10;;;11.50;1.00;;;;;;5054250;28;20545;-78
2024/01/22 00:37:53;;;;;;;8.98;6.57;;;11.60;1.00;;;;;;5046523;28;20091;-76
2024/01/22 00:40:18;;;;;;;8.95;5.78;;;11.60;99.90;;;;;;5046600;28;20041;-77
2024/01/22 00:42:44;;;;;;;11.30;6.55;;;11.50;99.90;;;;;;5027667;28;20739;-73
2024/01/22 00:45:10;;;;;;;9.02;6.45;;;10.30;99.90;;;;;;5069848;28;20143;-75
2024/01/22 00:47:37;;;;;;;9.18;6.25;;;11.50;99.90;;;;;;5036419;28;20041;-75
2024/01/22 00:50:03;;;;;;;7.55;5.60;;;11.30;99.90;;;;;;5055657;28;20377;-74
2024/01/22 00:52:29;;;;;;;8.20;5.65;;;10.70;99.90;;;;;;5049475;28;20033;-74
2024/01/22 00:54:55;;;;;;;7.43;6.03;;;11.50;99.90;;;;;;5069160;28;20040;-73
2024/01/22 00:57:20;;;;;;;9.05;6.28;;;10.70;99.90;;;;;;5051564;28;20089;-74
2024/01/22 00:59:46;;;;;;;8.70;6.13;;;10.60;99.90;;;;;;5067769;28;20072;-76
2024/01/22 01:02:12;;;;;;;8.95;6.13;;;10.60;99.90;;;;;;5053598;28;20040;-73
2024/01/22 01:04:38;;;;;;;9.43;6.15;;;10.40;99.90;;;;;;5052026;28;20036;-77
2024/01/22 01:07:04;;;;;;;9.88;6.28;;;11.90;99.90;;;;;;5065277;28;20508;-75
2024/01/22 01:09:29;;;;;;;9.00;6.20;;;10.60;99.90;;;;;;5069594;28;20077;-74
2024/01/22 01:11:55;;;;;;;8.55;6.60;;;11.30;1.00;;;;;;5068973;28;20115;-75
2024/01/22 01:14:21;;;;;;;8.80;6.47;;;11.00;1.00;;;;;;5053180;28;20043;-76
2024/01/22 01:16:46;;;;;;;8.52;5.93;;;12.00;1.00;;;;;;5068039;28;20037;-76
2024/01/22 01:19:12;;;;;;;8.77;6.32;;;11.20;1.00;;;;;;5035766;28;20044;-78
2024/01/22 01:21:38;;;;;;;11.20;6.47;;;10.90;50.40;;;;;;5069812;28;20036;-73
2024/01/22 01:24:04;;;;;;;6.88;5.57;;;11.90;35.80;;;;;;5053447;28;20064;-76
2024/01/22 01:26:30;;;;;;;7.05;5.93;;;12.10;1.00;;;;;;5052041;28;20048;-75
2024/01/22 01:28:56;;;;;;;10.98;6.60;;;12.10;1.00;;;;;;5069583;28;20033;-75
2024/01/22 01:31:22;;;;;;;7.88;5.65;;;12.10;55.40;;;;;;5036195;28;20040;-74
2024/01/22 01:33:47;;;;;;;8.07;6.00;;;10.90;90.80;;;;;;5068457;28;20197;-74
2024/01/22 01:36:13;;;;;;;10.95;6.38;;;11.40;99.90;;;;;;5037099;28;20518;-77
2024/01/22 01:38:39;;;;;;;8.30;6.20;;;10.40;99.90;;;;;;5027475;28;20389;-77
2024/01/22 01:41:05;;;;;;;8.07;5.82;;;11.80;99.90;;;;;;5069106;28;20194;-75
2024/01/22 01:43:30;;;;;;;8.50;5.90;;;12.10;1.00;;;;;;5053568;28;20051;-75
2024/01/22 01:45:56;;;;;;;8.98;5.95;;;12.10;1.00;;;;;;5033233;28;20037;-75
2024/01/22 01:48:22;;;;;;;7.68;6.10;;;12.20;1.00;;;;;;5065486;28;20202;-76
2024/01/22 01:50:48;;;;;;;11.13;7.13;;;12.20;1.00;;;;;;5069316;28;20652;-79
2024/01/22 01:53:14;;;;;;;11.18;6.75;;;10.70;1.00;;;;;;5064021;28;20052;-75
2024/01/22 01:55:41;;;;;;;9.43;6.47;;;11.60;1.00;;;;;;5036422;28;20051;-75
2024/01/22 01:58:07;;;;;;;12.38;6.57;;;12.50;1.00;;;;;;5065457;28;20055;-78
2024/01/22 02:00:33;;;;;;;10.20;6.53;;;12.50;70.10;;;;;;5065971;28;20485;-78
2024/01/22 02:02:58;;;;;;;8.80;5.70;;;12.50;14.90;;;;;;5069043;28;20044;-76
2024/01/22 02:05:25;;;;;;;8.65;6.40;;;12.70;99.90;;;;;;5051975;28;20178;-76
2024/01/22 02:07:50;;;;;;;9.68;6.68;;;12.60;99.90;;;;;;5051278;28;20040;-77
2024/01/22 02:10:16;;;;;;;7.97;6.28;;;12.20;99.90;;;;;;5017540;28;20039;-76
2024/01/22 02:12:42;;;;;;;8.75;6.82;;;13.10;99.90;;;;;;5051013;28;20036;-76
2024/01/22 02:15:08;;;;;;;12.05;7.10;;;11.40;99.90;;;;;;5069956;28;20048;-78
2024/01/22 02:17:34;;;;;;;9.35;7.50;;;13.20;99.90;;;;;;5053139;28;20127;-76
2024/01/22 02:19:59;;;;;;;10.32;6.68;;;10.90;99.90;;;;;;5061373;28;20048;-79
2024/01/22 02:22:25;;;;;;;11.20;7.15;;;10.60;99.90;;;;;;5067626;28;20036;-77
2024/01/22 02:24:51;;;;;;;10.88;7.10;;;10.90;99.90;;;;;;5069254;28;20131;-77
2024/01/22 02:27:17;;;;;;;9.07;6.85;;;13.20;99.90;;;;;;5052415;28;20041;-76
2024/01/22 02:29:43;;;;;;;9.88;7.35;;;10.40;99.90;;;;;;5048778;28;20048;-76
2024/01/22 02:32:09;;;;;;;8.65;7.18;;;10.40;99.90;;;;;;5066682;28;20033;-78
2024/01/22 02:34:34;;;;;;;8.88;6.80;;;13.00;99.90;;;;;;5051089;28;20119;-78
2024/01/22 02:37:00;;;;;;;9.90;7.45;;;11.30;99.90;;;;;;5052893;28;20037;-79
2024/01/22 02:39:26;;;;;;;8.73;6.70;;;11.50;99.90;;;;;;5048492;28;20049;-77
2024/01/22 02:41:52;;;;;;;9.23;6.32;;;10.80;99.90;;;;;;5066909;28;20044;-76
2024/01/22 02:44:17;;;;;;;8.82;6.05;;;13.40;99.90;;;;;;5065338;28;20036;-78
2024/01/22 02:46:43;;;;;;;9.80;5.90;;;10.10;99.90;;;;;;5052095;28;20444;-76
2024/01/22 02:49:09;;;;;;;8.05;5.75;;;13.90;99.90;;;;;;5068273;28;20040;-79
2024/01/22 02:51:35;;;;;;;8.50;5.97;;;14.00;99.90;;;;;;5025422;28;20033;-80
2024/01/22 02:54:04;;;;;;;7.15;5.45;;;10.90;99.90;;;;;;5065945;28;20029;-79
2024/01/22 02:56:30;;;;;;;8.02;5.60;;;14.30;99.90;;;;;;5048316;28;20048;-79
2024/01/22 02:58:56;;;;;;;7.32;5.53;;;12.30;99.90;;;;;;5034767;28;20219;-77
2024/01/22 03:01:22;;;;;;;9.55;5.35;;;10.80;99.90;;;;;;5068671;28;20048;-80
2024/01/22 03:03:47;;;;;;;7.38;5.38;;;13.30;99.90;;;;;;5052049;28;20044;-76
2024/01/22 03:06:13;;;;;;;6.90;5.32;;;12.10;99.90;;;;;;5052439;28;20437;-77
2024/01/22 03:08:39;;;;;;;6.68;5.65;;;13.80;99.90;;;;;;5059492;28;20496;-79
2024/01/22 03:11:04;;;;;;;7.70;5.78;;;12.40;99.90;;;;;;5067641;28;20182;-80
2024/01/22 03:13:30;;;;;;;8.23;5.35;;;14.60;99.90;;;;;;5068443;28;20117;-81
2024/01/22 03:15:56;;;;;;;7.22;5.20;;;10.80;99.90;;;;;;5050298;28;20040;-77
2024/01/22 03:18:21;;;;;;;6.57;5.18;;;14.60;99.90;;;;;;5063736;28;20029;-75
2024/01/22 03:20:47;;;;;;;8.18;5.47;;;12.10;99.90;;;;;;5047866;28;20059;-80
2024/01/22 03:23:13;;;;;;;9.02;5.18;;;13.70;99.90;;;;;;5068692;28;20110;-76
2024/01/22 03:25:38;;;;;;;7.95;5.63;;;12.00;99.90;;;;;;5050746;28;20048;-74
2024/01/22 03:28:04;;;;;;;8.10;5.88;;;13.50;99.90;;;;;;5080237;28;20044;-78
2024/01/22 03:30:30;;;;;;;7.43;5.88;;;14.00;99.90;;;;;;5024334;28;20036;-75
2024/01/22 03:32:56;;;;;;;8.88;6.60;;;13.10;99.90;;;;;;5051631;28;20460;-75
2024/01/22 03:35:22;;;;;;;7.88;6.18;;;11.30;99.90;;;;;;5033399;28;20085;-76
2024/01/22 03:37:48;;;;;;;9.38;6.38;;;11.20;99.90;;;;;;5066154;28;20071;-76
2024/01/22 03:40:14;;;;;;;9.45;6.82;;;13.60;99.90;;;;;;5064484;28;20398;-76
2024/01/22 03:42:40;;;;;;;10.05;6.28;;;10.40;99.90;;;;;;5050196;28;20139;-77
2024/01/22 03:45:06;;;;;;;7.43;6.10;;;13.90;99.90;;;;;;5050896;28;20468;-75
2024/01/22 03:47:32;;;;;;;6.88;5.57;;;14.40;99.90;;;;;;5066246;28;20033;-76
2024/01/22 03:49:57;;;;;;;9.35;6.75;;;11.80;99.90;;;;;;5031055;28;20140;-77
2024/01/22 03:52:23;;;;;;;10.70;6.47;;;14.20;99.90;;;;;;5047571;28;20064;-78
2024/01/22 03:54:49;;;;;;;8.20;6.13;;;13.40;99.90;;;;;;5068156;28;20036;-77
2024/01/22 03:57:15;;;;;;;8.40;6.32;;;10.60;99.90;;;;;;5062677;28;20085;-81
2024/01/22 03:59:41;;;;;;;6.68;6.03;;;11.70;99.90;;;;;;5066967;28;20176;-81
2024/01/22 04:02:07;;;;;;;7.30;5.97;;;10.30;99.90;;;;;;5051480;28;20387;-77
2024/01/22 04:04:34;;;;;;;7.10;5.85;;;14.00;99.90;;;;;;5066875;28;20044;-82
2024/01/22 04:06:59;;;;;;;8.15;5.85;;;12.50;99.90;;;;;;5033437;28;20049;-79
2024/01/22 04:09:25;;;;;;;8.65;5.43;;;14.40;99.90;;;;;;5069654;28;20041;-76
2024/01/22 04:11:51;;;;;;;6.50;4.97;;;10.70;99.90;;;;;;5053568;28;20499;-78
2024/01/22 04:14:16;;;;;;;7.35;5.70;;;10.50;99.90;;;;;;5071992;28;20036;-77
2024/01/22 04:16:44;;;;;;;7.13;5.32;;;14.20;99.90;;;;;;5067131;28;20045;-78
2024/01/22 04:19:10;;;;;;;6.25;5.20;;;14.50;99.90;;;;;;5066446;28;20036;-78
2024/01/22 04:21:44;;;;;;;7.00;5.20;;;13.40;99.90;;;;;;5071518;28;20119;-77
2024/01/22 04:24:09;;;;;;;7.55;5.10;;;14.10;99.90;;;;;;5070070;28;20096;-78
2024/01/22 04:26:35;;;;;;;6.32;5.47;;;13.60;99.90;;;;;;5069978;28;20094;-78
2024/01/22 04:29:01;;;;;;;6.75;5.10;;;14.90;99.90;;;;;;5035853;28;20044;-77
2024/01/22 04:31:26;;;;;;;7.85;5.25;;;12.20;99.90;;;;;;5065560;28;20048;-75
2024/01/22 04:33:54;;;;;;;6.32;5.18;;;13.10;99.90;;;;;;5036839;28;20493;-77
2024/01/22 04:36:20;;;;;;;5.30;4.80;;;13.70;99.90;;;;;;5054972;28;20037;-77
2024/01/22 04:38:46;;;;;;;5.55;5.05;;;11.00;99.90;;;;;;5050504;28;20102;-77
2024/01/22 04:41:12;;;;;;;5.20;4.68;;;12.10;99.90;;;;;;5033346;28;20051;-78
2024/01/22 04:43:37;;;;;;;6.90;4.60;;;14.40;99.90;;;;;;5063927;28;20119;-78
2024/01/22 04:46:03;;;;;;;6.80;4.82;;;12.60;99.90;;;;;;5037982;28;20128;-77
2024/01/22 04:48:29;;;;;;;6.43;5.47;;;14.50;99.90;;;;;;5066251;28;20098;-79
2024/01/22 04:50:54;;;;;;;5.40;4.75;;;11.90;99.90;;;;;;5046898;28;20086;-77
2024/01/22 04:53:20;;;;;;;4.70;4.18;;;14.20;99.90;;;;;;5050500;28;20044;-76
2024/01/22 04:55:46;;;;;;;5.32;4.82;;;13.10;99.90;;;;;;5068619;28;20414;-76
2024/01/22 04:58:11;;;;;;;5.65;4.75;;;14.50;99.90;;;;;;5053309;28;20055;-76
2024/01/22 05:00:37;;;;;;;5.20;4.65;;;11.60;99.90;;;;;;5051417;28;20051;-77
2024/01/22 05:03:04;;;;;;;5.57;4.90;;;13.90;99.90;;;;;;5033623;28;20041;-79
2024/01/22 05:05:34;;;;;;;5.88;5.25;;;12.00;99.90;;;;;;5067427;28;20638;-79
2024/01/22 05:08:00;;;;;;;5.65;5.10;;;12.30;99.90;;;;;;5070002;28;20094;-76
2024/01/22 05:10:26;;;;;;;6.32;5.60;;;11.30;99.90;;;;;;5020789;28;20037;-76
2024/01/22 05:12:52;;;;;;;5.65;4.95;;;15.30;99.90;;;;;;5066990;28;20043;-78
2024/01/22 05:15:18;;;;;;;5.88;5.05;;;13.90;99.90;;;;;;5069919;28;20037;-75
2024/01/22 05:17:44;;;;;;;5.40;4.90;;;11.20;99.90;;;;;;5068673;28;20132;-77
2024/01/22 05:20:10;;;;;;;5.63;4.72;;;11.10;99.90;;;;;;5051250;28;20060;-77
2024/01/22 05:22:36;;;;;;;5.22;4.47;;;15.30;99.90;;;;;;5018947;28;20040;-79
2024/01/22 05:25:02;;;;;;;6.20;5.20;;;12.90;99.90;;;;;;5067186;28;20049;-75
2024/01/22 05:27:30;;;;;;;6.10;4.90;;;11.70;99.90;;;;;;5067170;28;20119;-76
2024/01/22 05:29:56;;;;;;;5.85;4.60;;;12.30;99.90;;;;;;5064687;28;20496;-77
2024/01/22 05:32:24;;;;;;;5.05;4.55;;;12.20;99.90;;;;;;5051620;28;20032;-77
2024/01/22 05:34:50;;;;;;;4.78;4.30;;;11.20;99.90;;;;;;5050088;28;20043;-77
2024/01/22 05:37:16;;;;;;;7.57;5.15;;;12.30;99.90;;;;;;5068891;28;20404;-76
2024/01/22 05:39:41;;;;;;;5.45;4.72;;;12.90;99.90;;;;;;5065958;28;20048;-76
2024/01/22 05:42:07;;;;;;;5.15;4.65;;;14.00;99.90;;;;;;5026927;28;20063;-79
2024/01/22 05:44:33;;;;;;;4.50;4.05;;;16.00;99.90;;;;;;5066882;28;20134;-77
2024/01/22 05:46:59;;;;;;;4.82;4.22;;;15.10;99.90;;;;;;5052712;28;20103;-76
2024/01/22 05:49:24;;;;;;;4.40;4.00;;;16.00;99.90;;;;;;5050054;28;20446;-77
2024/01/22 05:51:50;;;;;;;4.68;3.90;;;12.50;99.90;;;;;;5067839;28;20044;-76
2024/01/22 05:54:15;;;;;;;4.88;3.88;;;11.80;99.90;;;;;;5029595;28;20457;-78
2024/01/22 05:56:41;;;;;;;4.10;3.50;;;12.90;99.90;;;;;;5050844;28;20072;-78
2024/01/22 05:59:07;;;;;;;3.70;3.25;;;12.10;99.90;;;;;;5065410;28;20043;-77
2024/01/22 06:01:33;;;;;;;3.78;3.40;;;15.70;99.90;;;;;;5067828;28;20659;-76
2024/01/22 06:04:00;;;;;;;5.20;3.25;;;11.50;99.90;;;;;;5050430;28;20048;-77
2024/01/22 06:06:25;;;;;;;6.80;3.20;;;15.20;99.90;;;;;;5049888;28;20041;-77
2024/01/22 06:08:51;;;;;;;5.28;3.60;;;11.70;99.90;;;;;;5049146;28;20048;-78
2024/01/22 06:11:18;;;;;;;5.47;3.92;;;15.30;99.90;;;;;;5051330;28;20424;-79
2024/01/22 06:13:44;;;;;;;6.78;3.50;;;16.60;99.90;;;;;;5050051;28;20424;-77
2024/01/22 06:16:14;;;;;;;7.03;3.78;;;15.30;99.90;;;;;;5050475;28;20392;-78
2024/01/22 06:18:41;;;;;;;9.07;3.50;;;16.50;99.90;;;;;;5045224;28;20135;-75
2024/01/22 06:21:08;;;;;;;7.30;3.20;;;15.40;99.90;;;;;;5035919;28;20051;-76
2024/01/22 06:23:34;;;;;;;6.22;2.67;;;14.30;99.90;;;;;;5010963;28;1134043;-78
2024/01/22 06:26:00;;;;;;;7.57;2.85;;;11.80;99.90;;;;;;5067022;28;20059;-77
2024/01/22 06:28:29;;;;;;;9.73;2.70;;;12.20;99.90;;;;;;5051509;28;20048;-78
2024/01/22 06:30:55;;;;;;;4.35;2.10;;;16.60;99.90;;;;;;5068940;28;20037;-77
2024/01/22 06:33:21;;;;;;;4.55;2.50;;;14.90;99.90;;;;;;5069351;28;20044;-76
2024/01/22 06:35:49;;;;;;;7.03;2.47;;;12.20;99.90;;;;;;5067901;28;20040;-76
2024/01/22 06:38:18;;;;;;;6.72;2.78;;;12.00;99.90;;;;;;5063699;28;20082;-80
2024/01/22 06:40:45;;;;;;;6.85;2.30;;;15.80;99.90;;;;;;5047923;28;20093;-80
2024/01/22 06:43:11;;;;;;;7.95;2.70;;;16.80;99.90;;;;;;5053061;28;20125;-81
2024/01/22 06:45:37;;;;;;;7.20;2.60;;;15.40;99.90;;;;;;5051746;28;20033;-78
2024/01/22 06:48:03;;;;;;;5.43;2.38;;;17.00;99.90;;;;;;5050715;28;20040;-77
2024/01/22 06:50:29;;;;;;;5.93;2.42;;;12.10;99.90;;;;;;5068952;28;20037;-77
2024/01/22 06:52:55;;;;;;;8.63;3.00;;;11.90;99.90;;;;;;5068080;28;20040;-76
2024/01/22 06:55:22;;;;;;;10.93;3.22;;;16.20;99.90;;;;;;5068405;28;20028;-79
2024/01/22 06:57:48;;;;;;;6.63;2.50;;;13.70;99.90;;;;;;5065374;28;20041;-82
2024/01/22 07:00:15;;;;;;;8.93;3.30;;;14.10;99.90;;;;;;5058261;28;20052;-78
2024/01/22 07:02:43;;;;;;;12.65;3.75;;;15.00;99.90;;;;;;5050474;28;20514;-77
2024/01/22 07:05:10;;;;;;;9.45;3.30;;;15.20;99.90;;;;;;5051619;28;20361;-77
2024/01/22 07:07:37;;;;;;;8.82;3.00;;;12.10;99.90;;;;;;5068370;28;20049;-75
2024/01/22 07:10:08;;;;;;;11.00;3.47;;;15.70;99.90;;;;;;5068215;28;20134;-76
2024/01/22 07:12:40;;;;;;;12.18;3.30;;;13.60;99.90;;;;;;5050426;28;20040;-76
2024/01/22 07:15:08;;;;;;;12.60;3.42;;;12.70;99.90;;;;;;5052257;28;20036;-79
2024/01/22 07:17:34;;;;;;;14.18;3.42;;;12.00;99.90;;;;;;5051742;28;20406;-75
2024/01/22 07:19:59;;;;;;;12.82;3.63;;;17.00;99.90;;;;;;5067794;28;20056;-77
2024/01/22 07:22:25;;;;;;;13.43;3.92;;;13.70;99.90;;;;;;5026851;28;20135;-75
2024/01/22 07:24:51;;;;;;;15.15;3.60;;;13.10;99.90;;;;;;5050113;28;20143;-78
2024/01/22 07:27:18;;;;;;;19.05;4.45;;;15.50;99.90;;;;;;5067441;28;20079;-75
2024/01/22 07:29:43;;;;;;;17.02;4.03;;;13.50;99.90;;;;;;5034387;28;20049;-81
2024/01/22 07:32:09;;;;;;;21.25;4.82;;;16.10;99.90;;;;;;5055075;28;20085;-78
2024/01/22 07:34:34;;;;;;;21.08;5.05;;;11.90;99.90;;;;;;5053079;28;20047;-81
2024/01/22 07:37:00;;;;;;;25.95;5.72;;;13.70;99.90;;;;;;5051432;28;20051;-78
2024/01/22 07:39:26;;;;;;;24.23;6.03;;;12.70;99.90;;;;;;5051315;28;20101;-75
2024/01/22 07:41:52;;;;;;;26.52;6.00;;;16.40;99.90;;;;;;5065598;28;20037;-78
2024/01/22 07:44:17;;;;;;;25.30;5.72;;;11.90;99.90;;;;;;5099081;28;20679;-74
2024/01/22 07:46:44;;;;;;;20.35;6.22;;;13.70;99.90;;;;;;5051503;28;20044;-78
2024/01/22 07:49:10;;;;;;;28.50;6.38;;;13.90;99.90;;;;;;5051787;28;20068;-78
2024/01/22 07:51:35;;;;;;;32.10;6.72;;;11.90;99.90;;;;;;5051369;28;20037;-76
2024/01/22 07:54:01;;;;;;;28.17;7.20;;;14.30;99.90;;;;;;5049061;28;20124;-78
2024/01/22 07:56:28;;;;;;;32.80;6.43;;;14.50;99.90;;;;;;5051687;28;20051;-78
2024/01/22 07:58:53;;;;;;;30.63;6.70;;;11.90;99.90;;;;;;5050857;28;20105;-79
2024/01/22 08:01:19;;;;;;;29.25;7.07;;;12.70;99.90;;;;;;5068035;28;20060;-80
2024/01/22 08:03:45;;;;;;;32.72;7.72;;;13.60;99.90;;;;;;5047326;28;20508;-78
2024/01/22 08:06:11;;;;;;;33.08;6.60;;;16.50;99.90;;;;;;5051195;28;20091;-80
2024/01/22 08:08:39;;;;;;;24.10;6.68;;;16.60;99.90;;;;;;5051397;28;20045;-77
2024/01/22 08:11:05;;;;;;;27.55;7.07;;;15.50;99.90;;;;;;5067924;28;20438;-77
2024/01/22 08:13:30;;;;;;;28.77;7.47;;;12.30;99.90;;;;;;5066651;28;20036;-80
2024/01/22 08:15:56;;;;;;;26.65;6.50;;;14.30;99.90;;;;;;5067438;28;20120;-80
2024/01/22 08:18:22;;;;;;;28.48;6.30;;;16.10;99.90;;;;;;5034728;28;20342;-77
2024/01/22 08:20:48;;;;;;;37.70;7.53;;;13.00;99.90;;;;;;5050924;28;20036;-80
2024/01/22 08:23:14;;;;;;;36.45;7.43;;;12.80;99.90;;;;;;5050772;28;20052;-77
2024/01/22 08:25:40;;;;;;;29.38;7.00;;;12.90;99.90;;;;;;5049007;28;20101;-78
2024/01/22 08:28:06;;;;;;;29.77;7.47;;;15.60;99.90;;;;;;5050936;28;20047;-80
2024/01/22 08:30:32;;;;;;;32.92;7.45;;;13.00;99.90;;;;;;5067673;28;20036;-80
2024/01/22 08:32:58;;;;;;;37.17;7.45;;;15.40;99.90;;;;;;5050615;28;20358;-78
2024/01/22 08:35:24;;;;;;;37.28;6.95;;;12.60;99.90;;;;;;5051056;28;20480;-78
2024/01/22 08:37:55;;;;;;;26.17;6.70;;;12.80;99.90;;;;;;5067353;28;20040;-77
2024/01/22 08:40:21;;;;;;;26.48;5.72;;;12.30;99.90;;;;;;5067655;28;20131;-79
2024/01/22 08:42:52;;;;;;;24.60;5.97;;;12.10;99.90;;;;;;5050206;28;20071;-79
2024/01/22 08:45:19;;;;;;;25.52;5.78;;;13.20;99.90;;;;;;5040329;28;20049;-81
2024/01/22 08:47:45;;;;;;;26.75;5.72;;;14.60;99.90;;;;;;5069882;28;20082;-77
2024/01/22 08:50:20;;;;;;;21.25;5.13;;;15.60;99.90;;;;;;5101306;28;20386;-77
2024/01/22 08:52:47;;;;;;;26.70;5.70;;;14.90;99.90;;;;;;5069007;28;20044;-79
2024/01/22 08:55:14;;;;;;;27.65;6.38;;;14.70;99.90;;;;;;5054455;28;20060;-81
2024/01/22 08:57:41;;;;;;;23.38;6.18;;;15.50;99.90;;;;;;5047527;28;20067;-75
2024/01/22 09:00:10;;;;;;;27.52;6.80;;;11.40;99.90;;;;;;5054551;28;20139;-77
2024/01/22 09:02:41;;;;;;;30.50;6.45;;;14.70;99.90;;;;;;5033475;28;20041;-77
2024/01/22 09:05:10;;;;;;;28.40;7.18;;;11.30;99.90;;;;;;5067594;28;20751;-76
2024/01/22 09:07:37;;;;;;;29.38;7.05;;;12.00;99.90;;;;;;5070674;28;20063;-76
2024/01/22 09:10:07;;;;;;;36.90;8.48;;;15.30;99.90;;;;;;5032265;28;20101;-78
2024/01/22 09:12:36;;;;;;;39.42;8.27;;;11.40;99.90;;;;;;5051204;28;20049;-81
2024/01/22 09:15:03;;;;;;;34.38;8.60;;;15.50;99.90;;;;;;5062658;28;20047;-79
2024/01/22 09:17:30;;;;;;;43.15;8.80;;;11.40;99.90;;;;;;5070761;28;20123;-78
2024/01/22 09:19:56;;;;;;;44.92;9.70;;;14.60;99.90;;;;;;5063647;28;20060;-80
2024/01/22 09:22:23;;;;;;;40.00;9.95;;;14.70;99.90;;;;;;5034012;28;20052;-76
2024/01/22 09:24:49;;;;;;;50.17;10.00;;;13.70;99.90;;;;;;5064599;28;20524;-76
2024/01/22 09:27:15;;;;;;;51.95;10.30;;;15.00;99.90;;;;;;5037660;28;20044;-78
2024/01/22 09:29:41;;;;;;;50.78;10.73;;;15.10;99.90;;;;;;5068476;28;20039;-77
2024/01/22 09:32:09;;;;;;;43.60;10.48;;;11.10;99.90;;;;;;5052405;28;20159;-77
2024/01/22 09:34:38;;;;;;;48.88;9.88;;;13.70;99.90;;;;;;5070963;28;20055;-76
2024/01/22 09:37:05;;;;;;;51.30;11.02;;;11.70;99.90;;;;;;5070887;28;20424;-79
2024/01/22 09:39:32;;;;;;;52.65;11.25;;;15.50;99.90;;;;;;5070379;28;20044;-77
2024/01/22 09:41:58;;;;;;;48.33;11.43;;;15.20;99.90;;;;;;5052522;28;20135;-78
2024/01/22 09:44:28;;;;;;;39.55;9.75;;;16.10;99.90;;;;;;5069984;28;20044;-76
2024/01/22 09:46:55;;;;;;;52.30;10.43;;;15.60;99.90;;;;;;5069607;28;20131;-78
2024/01/22 09:49:21;;;;;;;42.25;9.70;;;13.20;99.90;;;;;;5070063;28;20032;-77
2024/01/22 09:51:46;;;;;;;48.58;9.85;;;11.50;99.90;;;;;;5062583;28;20128;-78
2024/01/22 09:54:18;;;;;;;39.38;10.35;;;11.70;99.90;;;;;;5049947;28;20040;-75
2024/01/22 09:56:53;;;;;;;43.42;9.40;;;13.30;99.90;;;;;;5069179;28;20051;-78
2024/01/22 09:59:20;;;;;;;37.85;7.90;;;16.10;99.90;;;;;;5069217;28;20488;-75
2024/01/22 10:01:51;;;;;;;35.92;7.57;;;14.10;99.90;;;;;;5066860;28;20037;-78
2024/01/22 10:04:18;;;;;;;39.15;8.13;;;16.00;99.90;;;;;;5067014;28;20040;-78
2024/01/22 10:06:46;;;;;;;29.08;7.55;;;15.00;99.90;;;;;;5051864;28;20055;-76
2024/01/22 10:09:15;;;;;;;29.67;6.68;;;16.60;99.90;;;;;;5068987;28;20060;-77
2024/01/22 10:11:41;;;;;;;37.10;8.68;;;16.60;99.90;;;;;;5053280;28;20036;-76
2024/01/22 10:14:07;;;;;;;32.85;7.85;;;12.10;99.90;;;;;;5065798;28;20040;-76
2024/01/22 10:16:33;;;;;;;33.35;8.20;;;13.00;99.90;;;;;;5052923;28;20186;-76
2024/01/22 10:18:59;;;;;;;30.33;8.00;;;15.60;99.90;;;;;;5052555;28;20044;-77
2024/01/22 10:21:25;;;;;;;33.22;7.10;;;12.10;99.90;;;;;;5068860;28;20488;-76
2024/01/22 10:23:58;;;;;;;28.27;6.90;;;17.70;99.90;;;;;;5037529;28;20071;-76
2024/01/22 10:26:24;;;;;;;30.35;6.60;;;16.90;99.90;;;;;;5058949;28;20123;-75
2024/01/22 10:28:50;;;;;;;27.92;6.95;;;13.10;99.90;;;;;;5051867;28;20127;-75
2024/01/22 10:31:16;;;;;;;30.23;6.70;;;16.60;99.90;;;;;;5069072;28;20040;-77
2024/01/22 10:33:42;;;;;;;23.58;5.50;;;12.80;99.90;;;;;;5066213;28;20051;-74
2024/01/22 10:36:19;;;;;;;24.38;5.45;;;14.60;99.90;;;;;;5068098;28;20029;-76
2024/01/22 10:39:00;;;;;;;24.98;5.90;;;12.90;99.90;;;;;;5051725;28;20044;-75
2024/01/22 10:41:27;;;;;;;24.75;6.43;;;17.90;99.90;;;;;;5050735;28;20036;-75
2024/01/22 10:43:55;;;;;;;22.35;5.30;;;13.20;1.00;;;;;;5063624;28;20511;-77
2024/01/22 10:46:21;;;;;;;25.00;5.22;;;14.80;99.90;;;;;;5068122;28;20044;-78
2024/01/22 10:48:47;;;;;;;21.55;5.63;;;17.30;1.00;;;;;;5068862;28;20429;-78
2024/01/22 10:51:14;;;;;;;21.45;5.43;;;16.90;79.10;;;;;;5068395;28;20067;-76
2024/01/22 10:53:41;;;;;;;24.02;4.50;;;14.00;1.00;;;;;;5069062;28;20119;-78
2024/01/22 10:56:23;;;;;;;20.58;4.68;;;15.30;1.00;;;;;;5068188;28;20068;-79
2024/01/22 10:58:50;;;;;;;22.30;5.50;;;15.20;1.00;;;;;;5056494;28;20036;-77
2024/01/22 11:01:18;;;;;;;15.75;4.13;;;15.60;1.00;;;;;;5053454;28;20044;-78
2024/01/22 11:03:49;;;;;;;16.30;4.28;;;15.30;99.90;;;;;;5051800;28;20048;-78
2024/01/22 11:06:19;;;;;;;16.08;3.63;;;16.20;99.90;;;;;;5052205;28;20440;-77
2024/01/22 11:08:53;;;;;;;16.80;4.85;;;15.00;99.90;;;;;;5034420;28;20056;-76
2024/01/22 11:11:20;;;;;;;15.27;3.70;;;15.80;99.90;;;;;;5051987;28;20033;-76
2024/01/22 11:13:50;;;;;;;27.45;5.75;;;16.10;99.90;;;;;;5068075;28;20497;-78
2024/01/22 11:16:17;;;;;;;17.52;5.53;;;17.30;99.90;;;;;;5051655;28;20040;-76
2024/01/22 11:18:57;;;;;;;19.13;5.18;;;14.40;99.90;;;;;;5031427;28;20139;-78
2024/01/22 11:21:24;;;;;;;24.42;5.97;;;13.90;99.90;;;;;;5049478;28;20051;-77
2024/01/22 11:24:12;;;;;;;22.27;5.47;;;15.10;1.00;;;;;;5066980;28;20436;-77
2024/01/22 11:26:51;;;;;;;19.48;5.32;;;17.70;1.00;;;;;;5068420;28;20048;-77
2024/01/22 11:29:28;;;;;;;21.67;5.00;;;15.60;99.90;;;;;;5049774;28;20625;-78
2024/01/22 11:31:54;;;;;;;18.38;4.07;;;17.50;1.00;;;;;;5050690;28;20049;-77
2024/01/22 11:34:42;;;;;;;16.38;4.40;;;15.10;99.90;;;;;;5067894;28;20667;-79
2024/01/22 11:37:08;;;;;;;20.67;5.00;;;16.20;99.90;;;;;;5068018;28;20047;-77
2024/01/22 11:39:41;;;;;;;19.17;5.22;;;15.50;99.90;;;;;;5067371;28;20036;-80
2024/01/22 11:42:16;;;;;;;21.83;4.95;;;14.20;99.90;;;;;;5050582;28;20040;-77
2024/01/22 11:44:43;;;;;;;15.50;3.92;;;15.90;99.90;;;;;;5067251;28;20045;-77
2024/01/22 11:47:12;;;;;;;15.68;4.40;;;16.30;99.90;;;;;;5050241;28;20043;-76
2024/01/22 11:49:38;;;;;;;20.45;4.05;;;14.20;99.90;;;;;;5049745;28;20138;-77
2024/01/22 11:52:18;;;;;;;25.88;4.40;;;16.30;99.90;;;;;;5064332;28;20045;-77
2024/01/22 11:54:59;;;;;;;21.85;4.85;;;14.70;99.90;;;;;;5065966;28;20106;-76
2024/01/22 11:57:27;;;;;;;15.38;4.43;;;14.20;99.90;;;;;;5066888;28;20072;-76
2024/01/22 12:00:10;;;;;;;19.10;4.35;;;15.80;99.90;;;;;;5063624;28;20094;-76
2024/01/22 12:02:40;;;;;;;15.68;4.38;;;14.50;1.00;;;;;;5065242;28;20041;-76
2024/01/22 12:05:12;;;;;;;18.13;5.38;;;16.10;1.00;;;;;;5049269;28;20134;-76
2024/01/22 12:07:40;;;;;;;14.90;4.05;;;14.90;1.00;;;;;;5092034;28;20115;-78
2024/01/22 12:10:27;;;;;;;17.95;4.30;;;16.20;99.90;;;;;;5048302;28;20396;-76
2024/01/22 12:12:57;;;;;;;28.02;5.38;;;15.10;99.90;;;;;;5065645;28;20040;-77
2024/01/22 12:15:24;;;;;;;17.88;4.18;;;14.90;99.90;;;;;;5075028;28;20116;-75
2024/01/22 12:17:50;;;;;;;21.30;4.40;;;14.50;99.90;;;;;;5066700;28;20055;-76
2024/01/22 12:20:20;;;;;;;18.40;3.85;;;15.40;99.90;;;;;;5065833;28;20036;-76
2024/01/22 12:22:54;;;;;;;16.15;3.92;;;15.00;99.90;;;;;;5057064;28;20051;-76
2024/01/22 12:25:20;;;;;;;17.73;3.90;;;15.00;99.90;;;;;;5049313;28;20127;-77
2024/01/22 12:27:47;;;;;;;20.80;4.63;;;14.20;99.90;;;;;;5053464;28;20147;-76
2024/01/22 12:30:17;;;;;;;16.23;3.85;;;13.90;99.90;;;;;;5054507;28;20539;-79
2024/01/22 12:32:53;;;;;;;23.50;4.72;;;14.90;99.90;;;;;;5054532;28;20064;-76
2024/01/22 12:35:25;;;;;;;19.48;4.97;;;14.30;99.90;;;;;;5091465;28;20036;-79
2024/01/22 12:37:51;;;;;;;14.52;3.22;;;14.30;99.90;;;;;;5071040;28;20125;-79
2024/01/22 12:40:18;;;;;;;18.08;4.78;;;14.60;99.90;;;;;;5053860;28;20068;-79
2024/01/22 12:42:49;;;;;;;17.63;4.32;;;14.50;99.90;;;;;;5070086;28;20076;-76